sensor_id;sensor_type;location;lat;lon;timestamp;temperature;humidity
41310;DHT22;27057;51.438;-0.010;2023-12-20T00:00:37;5.70;99.90
41310;DHT22;27057;51.438;-0.010;2023-12-20T00:03:05;5.70;99.90
41310;DHT22;27057;51.438;-0.010;2023-12-20T00:05:32;5.60;99.90
41310;DHT22;27057;51.438;-0.010;2023-12-20T00:08:00;5.80;99.90
41310;DHT22;27057;51.438;-0.010;2023-12-20T00:10:28;5.90;99.90
41310;DHT22;27057;51.438;-0.010;2023-12-20T00:12:55;6.00;99.90
41310;DHT22;27057;51.438;-0.010;2023-12-20T00:15:23;5.70;99.90
41310;DHT22;27057;51.438;-0.010;2023-12-20T00:20:18;5.70;99.90
41310;DHT22;27057;51.438;-0.010;2023-12-20T00:22:46;5.70;99.90
41310;DHT22;27057;51.438;-0.010;2023-12-20T00:27:41;5.50;99.90
41310;DHT22;27057;51.438;-0.010;2023-12-20T00:30:09;6.10;99.90
41310;DHT22;27057;51.438;-0.010;2023-12-20T00:32:37;5.60;99.90
41310;DHT22;27057;51.438;-0.010;2023-12-20T00:35:05;5.50;99.90
41310;DHT22;27057;51.438;-0.010;2023-12-20T00:37:33;5.60;99.90
41310;DHT22;27057;51.438;-0.010;2023-12-20T00:40:00;5.40;99.90
41310;DHT22;27057;51.438;-0.010;2023-12-20T00:42:27;5.80;99.90
41310;DHT22;27057;51.438;-0.010;2023-12-20T00:44:55;5.70;99.90
41310;DHT22;27057;51.438;-0.010;2023-12-20T00:47:22;5.70;99.90
41310;DHT22;27057;51.438;-0.010;2023-12-20T00:49:50;6.90;99.90
41310;DHT22;27057;51.438;-0.010;2023-12-20T00:52:17;6.00;99.90
41310;DHT22;27057;51.438;-0.010;2023-12-20T00:54:45;6.50;99.90
41310;DHT22;27057;51.438;-0.010;2023-12-20T00:57:13;5.50;99.90
41310;DHT22;27057;51.438;-0.010;2023-12-20T01:02:08;5.50;99.90
41310;DHT22;27057;51.438;-0.010;2023-12-20T01:07:04;5.20;99.90
41310;DHT22;27057;51.438;-0.010;2023-12-20T01:09:32;5.50;99.90
41310;DHT22;27057;51.438;-0.010;2023-12-20T01:11:59;5.60;99.90
41310;DHT22;27057;51.438;-0.010;2023-12-20T01:14:26;5.70;99.90
41310;DHT22;27057;51.438;-0.010;2023-12-20T01:16:54;5.50;99.90
41310;DHT22;27057;51.438;-0.010;2023-12-20T01:19:21;5.60;99.90
41310;DHT22;27057;51.438;-0.010;2023-12-20T01:21:48;5.60;99.90
41310;DHT22;27057;51.438;-0.010;2023-12-20T01:24:16;5.50;99.90
41310;DHT22;27057;51.438;-0.010;2023-12-20T01:26:43;6.00;99.90
41310;DHT22;27057;51.438;-0.010;2023-12-20T01:29:11;5.70;99.90
41310;DHT22;27057;51.438;-0.010;2023-12-20T01:31:39;5.80;99.90
41310;DHT22;27057;51.438;-0.010;2023-12-20T01:34:07;6.20;99.90
41310;DHT22;27057;51.438;-0.010;2023-12-20T01:36:35;5.80;99.90
41310;DHT22;27057;51.438;-0.010;2023-12-20T01:39:02;5.80;99.90
41310;DHT22;27057;51.438;-0.010;2023-12-20T01:44:04;5.90;99.90
41310;DHT22;27057;51.438;-0.010;2023-12-20T01:46:31;6.00;99.90
41310;DHT22;27057;51.438;-0.010;2023-12-20T01:48:59;6.90;99.90
41310;DHT22;27057;51.438;-0.010;2023-12-20T01:51:27;6.10;99.90
41310;DHT22;27057;51.438;-0.010;2023-12-20T01:53:57;6.30;99.90
41310;DHT22;27057;51.438;-0.010;2023-12-20T01:56:26;6.00;99.90
41310;DHT22;27057;51.438;-0.010;2023-12-20T02:01:22;6.00;99.90
41310;DHT22;27057;51.438;-0.010;2023-12-20T02:06:18;6.00;99.90
41310;DHT22;27057;51.438;-0.010;2023-12-20T02:08:49;6.00;99.90
41310;DHT22;27057;51.438;-0.010;2023-12-20T02:11:17;6.00;99.90
41310;DHT22;27057;51.438;-0.010;2023-12-20T02:13:45;6.10;99.90
41310;DHT22;27057;51.438;-0.010;2023-12-20T02:16:12;5.80;99.90
41310;DHT22;27057;51.438;-0.010;2023-12-20T02:18:40;6.00;99.90
41310;DHT22;27057;51.438;-0.010;2023-12-20T02:21:09;6.00;99.90
41310;DHT22;27057;51.438;-0.010;2023-12-20T02:23:37;6.00;99.90
41310;DHT22;27057;51.438;-0.010;2023-12-20T02:26:04;5.90;99.90
41310;DHT22;27057;51.438;-0.010;2023-12-20T02:28:34;6.00;99.90
41310;DHT22;27057;51.438;-0.010;2023-12-20T02:31:01;6.00;99.90
41310;DHT22;27057;51.438;-0.010;2023-12-20T02:35:56;5.60;99.90
41310;DHT22;27057;51.438;-0.010;2023-12-20T02:40:51;5.90;99.90
41310;DHT22;27057;51.438;-0.010;2023-12-20T02:43:19;6.00;99.90
41310;DHT22;27057;51.438;-0.010;2023-12-20T02:45:46;5.90;99.90
41310;DHT22;27057;51.438;-0.010;2023-12-20T02:48:14;5.80;99.90
41310;DHT22;27057;51.438;-0.010;2023-12-20T02:50:41;5.80;99.90
41310;DHT22;27057;51.438;-0.010;2023-12-20T02:53:08;5.80;99.90
41310;DHT22;27057;51.438;-0.010;2023-12-20T02:55:36;5.80;99.90
41310;DHT22;27057;51.438;-0.010;2023-12-20T02:58:03;5.80;99.90
41310;DHT22;27057;51.438;-0.010;2023-12-20T03:00:31;5.80;99.90
41310;DHT22;27057;51.438;-0.010;2023-12-20T03:02:58;5.80;99.90
41310;DHT22;27057;51.438;-0.010;2023-12-20T03:05:26;5.70;99.90
41310;DHT22;27057;51.438;-0.010;2023-12-20T03:07:54;5.70;99.90
41310;DHT22;27057;51.438;-0.010;2023-12-20T03:10:21;5.70;99.90
41310;DHT22;27057;51.438;-0.010;2023-12-20T03:12:53;5.70;99.90
41310;DHT22;27057;51.438;-0.010;2023-12-20T03:15:21;5.80;99.90
41310;DHT22;27057;51.438;-0.010;2023-12-20T03:17:48;5.70;99.90
41310;DHT22;27057;51.438;-0.010;2023-12-20T03:20:16;5.70;99.90
41310;DHT22;27057;51.438;-0.010;2023-12-20T03:22:43;5.70;99.90
41310;DHT22;27057;51.438;-0.010;2023-12-20T03:25:11;5.70;99.90
41310;DHT22;27057;51.438;-0.010;2023-12-20T03:27:38;5.70;99.90
41310;DHT22;27057;51.438;-0.010;2023-12-20T03:30:06;5.60;99.90
41310;DHT22;27057;51.438;-0.010;2023-12-20T03:32:34;5.70;99.90
41310;DHT22;27057;51.438;-0.010;2023-12-20T03:35:01;5.70;99.90
41310;DHT22;27057;51.438;-0.010;2023-12-20T03:37:29;5.60;99.90
41310;DHT22;27057;51.438;-0.010;2023-12-20T03:39:56;5.70;99.90
41310;DHT22;27057;51.438;-0.010;2023-12-20T03:42:23;5.70;99.90
41310;DHT22;27057;51.438;-0.010;2023-12-20T03:44:51;5.70;99.90
41310;DHT22;27057;51.438;-0.010;2023-12-20T03:47:18;5.60;99.90
41310;DHT22;27057;51.438;-0.010;2023-12-20T03:49:46;5.60;99.90
41310;DHT22;27057;51.438;-0.010;2023-12-20T03:52:13;5.70;99.90
41310;DHT22;27057;51.438;-0.010;2023-12-20T03:54:41;5.60;99.90
41310;DHT22;27057;51.438;-0.010;2023-12-20T03:57:11;5.60;99.90
41310;DHT22;27057;51.438;-0.010;2023-12-20T03:59:39;5.60;99.90
41310;DHT22;27057;51.438;-0.010;2023-12-20T04:02:06;5.60;99.90
41310;DHT22;27057;51.438;-0.010;2023-12-20T04:04:34;5.60;99.90
41310;DHT22;27057;51.438;-0.010;2023-12-20T04:07:01;5.70;99.90
41310;DHT22;27057;51.438;-0.010;2023-12-20T04:09:29;5.70;99.90
41310;DHT22;27057;51.438;-0.010;2023-12-20T04:11:56;5.70;99.90
41310;DHT22;27057;51.438;-0.010;2023-12-20T04:14:23;5.70;99.90
41310;DHT22;27057;51.438;-0.010;2023-12-20T04:16:52;5.70;99.90
41310;DHT22;27057;51.438;-0.010;2023-12-20T04:19:20;5.70;99.90
41310;DHT22;27057;51.438;-0.010;2023-12-20T04:21:47;5.70;99.90
41310;DHT22;27057;51.438;-0.010;2023-12-20T04:24:14;5.70;99.90
41310;DHT22;27057;51.438;-0.010;2023-12-20T04:26:42;5.80;99.90
41310;DHT22;27057;51.438;-0.010;2023-12-20T04:29:09;5.80;99.90
41310;DHT22;27057;51.438;-0.010;2023-12-20T04:31:37;5.70;99.90
41310;DHT22;27057;51.438;-0.010;2023-12-20T04:34:04;5.80;99.90
41310;DHT22;27057;51.438;-0.010;2023-12-20T04:36:32;5.80;99.90
41310;DHT22;27057;51.438;-0.010;2023-12-20T04:38:59;5.80;99.90
41310;DHT22;27057;51.438;-0.010;2023-12-20T04:41:27;5.80;99.90
41310;DHT22;27057;51.438;-0.010;2023-12-20T04:43:55;5.80;99.90
41310;DHT22;27057;51.438;-0.010;2023-12-20T04:46:22;5.80;99.90
41310;DHT22;27057;51.438;-0.010;2023-12-20T04:48:49;5.90;99.90
41310;DHT22;27057;51.438;-0.010;2023-12-20T04:51:17;5.90;99.90
41310;DHT22;27057;51.438;-0.010;2023-12-20T04:53:44;5.90;99.90
41310;DHT22;27057;51.438;-0.010;2023-12-20T04:56:12;5.90;99.90
41310;DHT22;27057;51.438;-0.010;2023-12-20T04:58:39;6.00;99.90
41310;DHT22;27057;51.438;-0.010;2023-12-20T05:01:08;6.00;99.90
41310;DHT22;27057;51.438;-0.010;2023-12-20T05:03:36;6.00;99.90
41310;DHT22;27057;51.438;-0.010;2023-12-20T05:06:03;6.00;99.90
41310;DHT22;27057;51.438;-0.010;2023-12-20T05:08:31;6.30;99.90
41310;DHT22;27057;51.438;-0.010;2023-12-20T05:10:58;5.60;99.90
41310;DHT22;27057;51.438;-0.010;2023-12-20T05:13:25;6.10;99.90
41310;DHT22;27057;51.438;-0.010;2023-12-20T05:18:36;6.00;99.90
41310;DHT22;27057;51.438;-0.010;2023-12-20T05:21:03;6.10;99.90
41310;DHT22;27057;51.438;-0.010;2023-12-20T05:23:31;7.20;99.90
41310;DHT22;27057;51.438;-0.010;2023-12-20T05:25:59;5.70;99.90
41310;DHT22;27057;51.438;-0.010;2023-12-20T05:30:54;5.60;99.90
41310;DHT22;27057;51.438;-0.010;2023-12-20T05:33:21;5.90;99.90
41310;DHT22;27057;51.438;-0.010;2023-12-20T05:35:49;5.50;99.90
41310;DHT22;27057;51.438;-0.010;2023-12-20T05:38:16;5.80;99.90
41310;DHT22;27057;51.438;-0.010;2023-12-20T05:40:43;5.90;99.90
41310;DHT22;27057;51.438;-0.010;2023-12-20T05:43:11;5.90;99.90
41310;DHT22;27057;51.438;-0.010;2023-12-20T05:45:38;5.70;99.90
41310;DHT22;27057;51.438;-0.010;2023-12-20T05:50:34;6.00;99.90
41310;DHT22;27057;51.438;-0.010;2023-12-20T06:00:25;5.80;99.90
41310;DHT22;27057;51.438;-0.010;2023-12-20T06:02:52;5.80;99.90
41310;DHT22;27057;51.438;-0.010;2023-12-20T06:05:20;5.90;99.90
41310;DHT22;27057;51.438;-0.010;2023-12-20T06:07:47;5.80;99.90
41310;DHT22;27057;51.438;-0.010;2023-12-20T06:10:17;5.90;99.90
41310;DHT22;27057;51.438;-0.010;2023-12-20T06:12:44;5.80;99.90
41310;DHT22;27057;51.438;-0.010;2023-12-20T06:15:14;6.00;99.90
41310;DHT22;27057;51.438;-0.010;2023-12-20T06:17:42;6.00;99.90
41310;DHT22;27057;51.438;-0.010;2023-12-20T06:20:10;5.90;99.90
41310;DHT22;27057;51.438;-0.010;2023-12-20T06:22:38;5.90;99.90
41310;DHT22;27057;51.438;-0.010;2023-12-20T06:25:05;5.80;99.90
41310;DHT22;27057;51.438;-0.010;2023-12-20T06:27:34;5.90;99.90
41310;DHT22;27057;51.438;-0.010;2023-12-20T06:32:29;6.10;99.90
41310;DHT22;27057;51.438;-0.010;2023-12-20T06:37:24;6.00;99.90
41310;DHT22;27057;51.438;-0.010;2023-12-20T06:39:52;5.60;99.90
41310;DHT22;27057;51.438;-0.010;2023-12-20T06:42:19;6.10;99.90
41310;DHT22;27057;51.438;-0.010;2023-12-20T06:49:42;6.00;99.90
41310;DHT22;27057;51.438;-0.010;2023-12-20T06:52:09;6.00;99.90
41310;DHT22;27057;51.438;-0.010;2023-12-20T06:54:37;6.30;99.90
41310;DHT22;27057;51.438;-0.010;2023-12-20T06:59:32;6.10;99.90
41310;DHT22;27057;51.438;-0.010;2023-12-20T07:02:00;6.10;99.90
41310;DHT22;27057;51.438;-0.010;2023-12-20T07:04:27;6.20;99.90
41310;DHT22;27057;51.438;-0.010;2023-12-20T07:06:55;6.00;99.90
41310;DHT22;27057;51.438;-0.010;2023-12-20T07:09:25;6.00;99.90
41310;DHT22;27057;51.438;-0.010;2023-12-20T07:11:53;6.00;99.90
41310;DHT22;27057;51.438;-0.010;2023-12-20T07:16:48;6.00;99.90
41310;DHT22;27057;51.438;-0.010;2023-12-20T07:19:15;7.20;99.90
41310;DHT22;27057;51.438;-0.010;2023-12-20T07:21:43;6.10;99.90
41310;DHT22;27057;51.438;-0.010;2023-12-20T07:24:11;6.00;99.90
41310;DHT22;27057;51.438;-0.010;2023-12-20T07:26:38;6.20;99.90
41310;DHT22;27057;51.438;-0.010;2023-12-20T07:29:06;6.30;99.90
41310;DHT22;27057;51.438;-0.010;2023-12-20T07:31:34;6.10;99.90
41310;DHT22;27057;51.438;-0.010;2023-12-20T07:34:02;6.20;99.90
41310;DHT22;27057;51.438;-0.010;2023-12-20T07:36:29;6.00;99.90
41310;DHT22;27057;51.438;-0.010;2023-12-20T07:38:56;6.10;99.90
41310;DHT22;27057;51.438;-0.010;2023-12-20T07:41:24;6.10;99.90
41310;DHT22;27057;51.438;-0.010;2023-12-20T07:43:52;6.10;99.90
41310;DHT22;27057;51.438;-0.010;2023-12-20T07:46:21;6.40;99.90
41310;DHT22;27057;51.438;-0.010;2023-12-20T07:48:50;6.10;99.90
41310;DHT22;27057;51.438;-0.010;2023-12-20T07:51:18;6.30;99.90
41310;DHT22;27057;51.438;-0.010;2023-12-20T07:53:46;6.50;99.90
41310;DHT22;27057;51.438;-0.010;2023-12-20T07:56:14;6.30;99.90
41310;DHT22;27057;51.438;-0.010;2023-12-20T07:58:42;6.30;99.90
41310;DHT22;27057;51.438;-0.010;2023-12-20T08:01:19;6.30;99.90
41310;DHT22;27057;51.438;-0.010;2023-12-20T08:03:49;6.30;99.90
41310;DHT22;27057;51.438;-0.010;2023-12-20T08:06:17;6.40;99.90
41310;DHT22;27057;51.438;-0.010;2023-12-20T08:08:44;6.30;99.90
41310;DHT22;27057;51.438;-0.010;2023-12-20T08:11:21;7.40;99.90
41310;DHT22;27057;51.438;-0.010;2023-12-20T08:13:48;6.50;99.90
41310;DHT22;27057;51.438;-0.010;2023-12-20T08:16:15;6.90;99.90
41310;DHT22;27057;51.438;-0.010;2023-12-20T08:18:45;6.30;99.90
41310;DHT22;27057;51.438;-0.010;2023-12-20T08:26:10;6.50;99.90
41310;DHT22;27057;51.438;-0.010;2023-12-20T08:28:38;6.70;99.90
41310;DHT22;27057;51.438;-0.010;2023-12-20T08:31:05;6.70;99.90
41310;DHT22;27057;51.438;-0.010;2023-12-20T08:33:33;6.60;99.90
41310;DHT22;27057;51.438;-0.010;2023-12-20T08:36:00;7.00;99.90
41310;DHT22;27057;51.438;-0.010;2023-12-20T08:38:32;6.50;99.90
41310;DHT22;27057;51.438;-0.010;2023-12-20T08:40:59;6.50;99.90
41310;DHT22;27057;51.438;-0.010;2023-12-20T08:45:56;6.50;99.90
41310;DHT22;27057;51.438;-0.010;2023-12-20T08:50:51;6.70;99.90
41310;DHT22;27057;51.438;-0.010;2023-12-20T08:53:19;6.60;99.90
41310;DHT22;27057;51.438;-0.010;2023-12-20T08:55:47;6.50;99.90
41310;DHT22;27057;51.438;-0.010;2023-12-20T08:58:15;6.80;99.90
41310;DHT22;27057;51.438;-0.010;2023-12-20T09:00:42;6.70;99.90
41310;DHT22;27057;51.438;-0.010;2023-12-20T09:03:09;6.80;99.90
41310;DHT22;27057;51.438;-0.010;2023-12-20T09:05:37;6.80;99.90
41310;DHT22;27057;51.438;-0.010;2023-12-20T09:08:05;7.40;99.90
41310;DHT22;27057;51.438;-0.010;2023-12-20T09:10:32;7.10;99.90
41310;DHT22;27057;51.438;-0.010;2023-12-20T09:13:00;7.40;99.90
41310;DHT22;27057;51.438;-0.010;2023-12-20T09:15:27;7.20;99.90
41310;DHT22;27057;51.438;-0.010;2023-12-20T09:17:55;7.10;99.90
41310;DHT22;27057;51.438;-0.010;2023-12-20T09:22:51;7.30;99.90
41310;DHT22;27057;51.438;-0.010;2023-12-20T09:25:18;8.80;99.90
41310;DHT22;27057;51.438;-0.010;2023-12-20T09:27:45;7.70;99.90
41310;DHT22;27057;51.438;-0.010;2023-12-20T09:30:14;7.30;99.90
41310;DHT22;27057;51.438;-0.010;2023-12-20T09:32:57;8.70;99.90
41310;DHT22;27057;51.438;-0.010;2023-12-20T09:35:24;7.90;99.90
41310;DHT22;27057;51.438;-0.010;2023-12-20T09:37:53;8.10;99.90
41310;DHT22;27057;51.438;-0.010;2023-12-20T09:40:22;9.40;99.90
41310;DHT22;27057;51.438;-0.010;2023-12-20T09:42:57;7.80;99.90
41310;DHT22;27057;51.438;-0.010;2023-12-20T09:47:53;8.00;99.90
41310;DHT22;27057;51.438;-0.010;2023-12-20T09:50:22;9.40;99.90
41310;DHT22;27057;51.438;-0.010;2023-12-20T09:52:51;8.30;99.90
41310;DHT22;27057;51.438;-0.010;2023-12-20T09:55:20;8.50;99.90
41310;DHT22;27057;51.438;-0.010;2023-12-20T09:57:48;8.20;99.90
41310;DHT22;27057;51.438;-0.010;2023-12-20T10:00:17;8.60;99.90
41310;DHT22;27057;51.438;-0.010;2023-12-20T10:02:56;8.40;99.90
41310;DHT22;27057;51.438;-0.010;2023-12-20T10:05:33;8.60;99.90
41310;DHT22;27057;51.438;-0.010;2023-12-20T10:08:01;8.70;99.90
41310;DHT22;27057;51.438;-0.010;2023-12-20T10:13:12;8.60;99.90
41310;DHT22;27057;51.438;-0.010;2023-12-20T10:15:40;8.70;99.90
41310;DHT22;27057;51.438;-0.010;2023-12-20T10:18:09;8.70;99.90
41310;DHT22;27057;51.438;-0.010;2023-12-20T10:20:40;9.40;99.90
41310;DHT22;27057;51.438;-0.010;2023-12-20T10:23:09;8.60;99.90
41310;DHT22;27057;51.438;-0.010;2023-12-20T10:25:37;9.50;99.90
41310;DHT22;27057;51.438;-0.010;2023-12-20T10:28:14;9.10;99.90
41310;DHT22;27057;51.438;-0.010;2023-12-20T10:30:44;8.80;99.90
41310;DHT22;27057;51.438;-0.010;2023-12-20T10:35:40;8.60;99.90
41310;DHT22;27057;51.438;-0.010;2023-12-20T10:38:12;9.00;99.90
41310;DHT22;27057;51.438;-0.010;2023-12-20T10:40:41;9.30;99.90
41310;DHT22;27057;51.438;-0.010;2023-12-20T10:43:10;9.10;99.90
41310;DHT22;27057;51.438;-0.010;2023-12-20T10:45:38;10.00;99.90
41310;DHT22;27057;51.438;-0.010;2023-12-20T10:48:06;9.20;99.90
41310;DHT22;27057;51.438;-0.010;2023-12-20T10:50:36;9.10;99.90
41310;DHT22;27057;51.438;-0.010;2023-12-20T10:53:06;9.10;99.90
41310;DHT22;27057;51.438;-0.010;2023-12-20T10:58:07;9.10;99.90
41310;DHT22;27057;51.438;-0.010;2023-12-20T11:00:39;9.00;99.90
41310;DHT22;27057;51.438;-0.010;2023-12-20T11:03:09;8.90;99.90
41310;DHT22;27057;51.438;-0.010;2023-12-20T11:05:59;8.90;99.90
41310;DHT22;27057;51.438;-0.010;2023-12-20T11:08:36;9.40;99.90
41310;DHT22;27057;51.438;-0.010;2023-12-20T11:11:33;9.10;99.90
41310;DHT22;27057;51.438;-0.010;2023-12-20T11:14:08;9.60;99.90
41310;DHT22;27057;51.438;-0.010;2023-12-20T11:16:39;9.30;99.90
41310;DHT22;27057;51.438;-0.010;2023-12-20T11:19:20;9.40;99.90
41310;DHT22;27057;51.438;-0.010;2023-12-20T11:21:48;9.60;99.90
41310;DHT22;27057;51.438;-0.010;2023-12-20T11:24:16;9.20;99.90
41310;DHT22;27057;51.438;-0.010;2023-12-20T11:26:47;9.20;99.90
41310;DHT22;27057;51.438;-0.010;2023-12-20T11:29:56;9.30;99.90
41310;DHT22;27057;51.438;-0.010;2023-12-20T11:34:56;9.30;99.90
41310;DHT22;27057;51.438;-0.010;2023-12-20T11:37:31;9.30;99.90
41310;DHT22;27057;51.438;-0.010;2023-12-20T11:40:05;9.30;99.90
41310;DHT22;27057;51.438;-0.010;2023-12-20T11:42:38;9.40;99.90
41310;DHT22;27057;51.438;-0.010;2023-12-20T11:45:11;9.40;99.90
41310;DHT22;27057;51.438;-0.010;2023-12-20T11:47:38;9.50;99.90
41310;DHT22;27057;51.438;-0.010;2023-12-20T11:50:06;9.50;99.90
41310;DHT22;27057;51.438;-0.010;2023-12-20T11:52:35;9.50;99.90
41310;DHT22;27057;51.438;-0.010;2023-12-20T11:55:02;9.60;99.90
41310;DHT22;27057;51.438;-0.010;2023-12-20T11:57:31;9.60;99.90
41310;DHT22;27057;51.438;-0.010;2023-12-20T11:59:59;9.90;99.90
41310;DHT22;27057;51.438;-0.010;2023-12-20T12:02:27;9.90;99.90
41310;DHT22;27057;51.438;-0.010;2023-12-20T12:04:54;10.00;99.90
41310;DHT22;27057;51.438;-0.010;2023-12-20T12:07:23;10.00;99.90
41310;DHT22;27057;51.438;-0.010;2023-12-20T12:09:51;10.20;99.90
41310;DHT22;27057;51.438;-0.010;2023-12-20T12:12:19;11.10;99.90
41310;DHT22;27057;51.438;-0.010;2023-12-20T12:14:48;10.30;99.90
41310;DHT22;27057;51.438;-0.010;2023-12-20T12:17:16;10.30;99.90
41310;DHT22;27057;51.438;-0.010;2023-12-20T12:19:44;10.70;99.90
41310;DHT22;27057;51.438;-0.010;2023-12-20T12:22:14;10.70;99.90
41310;DHT22;27057;51.438;-0.010;2023-12-20T12:24:43;10.30;99.90
41310;DHT22;27057;51.438;-0.010;2023-12-20T12:27:14;11.40;99.90
41310;DHT22;27057;51.438;-0.010;2023-12-20T12:29:43;10.20;99.90
41310;DHT22;27057;51.438;-0.010;2023-12-20T12:34:54;10.70;99.90
41310;DHT22;27057;51.438;-0.010;2023-12-20T12:37:23;10.80;99.90
41310;DHT22;27057;51.438;-0.010;2023-12-20T12:39:54;11.70;99.90
41310;DHT22;27057;51.438;-0.010;2023-12-20T12:42:22;11.80;99.90
41310;DHT22;27057;51.438;-0.010;2023-12-20T12:44:53;12.50;99.90
41310;DHT22;27057;51.438;-0.010;2023-12-20T12:47:20;13.10;99.90
41310;DHT22;27057;51.438;-0.010;2023-12-20T12:49:49;12.40;99.90
41310;DHT22;27057;51.438;-0.010;2023-12-20T12:54:46;12.20;99.90
41310;DHT22;27057;51.438;-0.010;2023-12-20T12:57:15;12.20;99.90
41310;DHT22;27057;51.438;-0.010;2023-12-20T12:59:43;12.40;99.90
41310;DHT22;27057;51.438;-0.010;2023-12-20T13:02:14;11.90;99.90
41310;DHT22;27057;51.438;-0.010;2023-12-20T13:04:42;12.00;99.90
41310;DHT22;27057;51.438;-0.010;2023-12-20T13:07:10;11.70;99.90
41310;DHT22;27057;51.438;-0.010;2023-12-20T13:09:39;11.90;99.90
41310;DHT22;27057;51.438;-0.010;2023-12-20T13:12:07;11.80;99.90
41310;DHT22;27057;51.438;-0.010;2023-12-20T13:14:35;11.80;99.90
41310;DHT22;27057;51.438;-0.010;2023-12-20T13:17:04;11.70;99.90
41310;DHT22;27057;51.438;-0.010;2023-12-20T13:19:31;11.60;99.90
41310;DHT22;27057;51.438;-0.010;2023-12-20T13:21:59;11.30;99.90
41310;DHT22;27057;51.438;-0.010;2023-12-20T13:24:27;11.30;99.90
41310;DHT22;27057;51.438;-0.010;2023-12-20T13:29:22;11.40;99.90
41310;DHT22;27057;51.438;-0.010;2023-12-20T13:31:49;11.40;99.90
41310;DHT22;27057;51.438;-0.010;2023-12-20T13:34:17;11.40;99.90
41310;DHT22;27057;51.438;-0.010;2023-12-20T13:36:45;11.50;99.90
41310;DHT22;27057;51.438;-0.010;2023-12-20T13:39:14;11.30;99.90
41310;DHT22;27057;51.438;-0.010;2023-12-20T13:41:42;11.20;99.90
41310;DHT22;27057;51.438;-0.010;2023-12-20T13:44:09;11.00;99.90
41310;DHT22;27057;51.438;-0.010;2023-12-20T13:46:37;11.00;99.90
41310;DHT22;27057;51.438;-0.010;2023-12-20T13:49:04;10.80;99.90
41310;DHT22;27057;51.438;-0.010;2023-12-20T13:51:32;10.90;99.90
41310;DHT22;27057;51.438;-0.010;2023-12-20T13:54:00;10.80;99.90
41310;DHT22;27057;51.438;-0.010;2023-12-20T13:56:27;11.30;99.90
41310;DHT22;27057;51.438;-0.010;2023-12-20T13:58:54;11.30;99.90
41310;DHT22;27057;51.438;-0.010;2023-12-20T14:01:23;11.20;99.90
41310;DHT22;27057;51.438;-0.010;2023-12-20T14:03:51;10.70;99.90
41310;DHT22;27057;51.438;-0.010;2023-12-20T14:06:19;10.80;99.90
41310;DHT22;27057;51.438;-0.010;2023-12-20T14:08:46;10.80;99.90
41310;DHT22;27057;51.438;-0.010;2023-12-20T14:11:15;10.80;99.90
41310;DHT22;27057;51.438;-0.010;2023-12-20T14:16:10;10.80;99.90
41310;DHT22;27057;51.438;-0.010;2023-12-20T14:26:02;10.60;99.90
41310;DHT22;27057;51.438;-0.010;2023-12-20T14:28:30;10.90;99.90
41310;DHT22;27057;51.438;-0.010;2023-12-20T14:33:26;11.10;99.90
41310;DHT22;27057;51.438;-0.010;2023-12-20T14:35:53;10.60;99.90
41310;DHT22;27057;51.438;-0.010;2023-12-20T14:40:49;10.90;99.90
41310;DHT22;27057;51.438;-0.010;2023-12-20T14:43:17;11.20;99.90
41310;DHT22;27057;51.438;-0.010;2023-12-20T14:48:13;10.80;99.90
41310;DHT22;27057;51.438;-0.010;2023-12-20T14:50:40;11.10;99.90
41310;DHT22;27057;51.438;-0.010;2023-12-20T14:53:09;10.50;99.90
41310;DHT22;27057;51.438;-0.010;2023-12-20T14:55:36;11.00;99.90
41310;DHT22;27057;51.438;-0.010;2023-12-20T14:58:04;10.60;99.90
41310;DHT22;27057;51.438;-0.010;2023-12-20T15:00:31;10.60;99.90
41310;DHT22;27057;51.438;-0.010;2023-12-20T15:02:59;11.60;99.90
41310;DHT22;27057;51.438;-0.010;2023-12-20T15:05:26;10.80;99.90
41310;DHT22;27057;51.438;-0.010;2023-12-20T15:07:54;10.70;99.90
41310;DHT22;27057;51.438;-0.010;2023-12-20T15:12:49;10.80;99.90
41310;DHT22;27057;51.438;-0.010;2023-12-20T15:15:17;11.00;99.90
41310;DHT22;27057;51.438;-0.010;2023-12-20T15:17:44;11.10;99.90
41310;DHT22;27057;51.438;-0.010;2023-12-20T15:20:13;10.80;99.90
41310;DHT22;27057;51.438;-0.010;2023-12-20T15:25:11;10.50;99.90
41310;DHT22;27057;51.438;-0.010;2023-12-20T15:30:08;11.00;99.90
41310;DHT22;27057;51.438;-0.010;2023-12-20T15:32:37;10.80;99.90
41310;DHT22;27057;51.438;-0.010;2023-12-20T15:37:34;10.90;99.90
41310;DHT22;27057;51.438;-0.010;2023-12-20T15:40:02;11.70;99.90
41310;DHT22;27057;51.438;-0.010;2023-12-20T15:42:33;10.50;99.90
41310;DHT22;27057;51.438;-0.010;2023-12-20T15:49:59;10.40;99.90
41310;DHT22;27057;51.438;-0.010;2023-12-20T15:52:27;10.80;99.90
41310;DHT22;27057;51.438;-0.010;2023-12-20T15:54:54;10.60;99.90
41310;DHT22;27057;51.438;-0.010;2023-12-20T15:57:22;10.80;99.90
41310;DHT22;27057;51.438;-0.010;2023-12-20T15:59:51;10.80;99.90
41310;DHT22;27057;51.438;-0.010;2023-12-20T16:02:18;10.70;99.90
41310;DHT22;27057;51.438;-0.010;2023-12-20T16:04:46;10.70;99.90
41310;DHT22;27057;51.438;-0.010;2023-12-20T16:07:13;10.60;99.90
41310;DHT22;27057;51.438;-0.010;2023-12-20T16:09:41;10.60;99.90
41310;DHT22;27057;51.438;-0.010;2023-12-20T16:12:08;10.70;99.90
41310;DHT22;27057;51.438;-0.010;2023-12-20T16:14:37;10.70;99.90
41310;DHT22;27057;51.438;-0.010;2023-12-20T16:17:05;10.70;99.90
41310;DHT22;27057;51.438;-0.010;2023-12-20T16:19:33;10.70;99.90
41310;DHT22;27057;51.438;-0.010;2023-12-20T16:22:01;10.70;99.90
41310;DHT22;27057;51.438;-0.010;2023-12-20T16:24:32;10.70;99.90
41310;DHT22;27057;51.438;-0.010;2023-12-20T16:27:01;10.80;99.90
41310;DHT22;27057;51.438;-0.010;2023-12-20T16:29:29;10.70;99.90
41310;DHT22;27057;51.438;-0.010;2023-12-20T16:31:56;10.80;99.90
41310;DHT22;27057;51.438;-0.010;2023-12-20T16:34:24;10.80;99.90
41310;DHT22;27057;51.438;-0.010;2023-12-20T16:36:53;10.80;99.90
41310;DHT22;27057;51.438;-0.010;2023-12-20T16:39:22;10.80;99.90
41310;DHT22;27057;51.438;-0.010;2023-12-20T16:41:51;10.80;99.90
41310;DHT22;27057;51.438;-0.010;2023-12-20T16:44:18;10.80;99.90
41310;DHT22;27057;51.438;-0.010;2023-12-20T16:46:45;10.80;99.90
41310;DHT22;27057;51.438;-0.010;2023-12-20T16:49:13;10.80;99.90
41310;DHT22;27057;51.438;-0.010;2023-12-20T16:51:40;10.80;99.90
41310;DHT22;27057;51.438;-0.010;2023-12-20T16:54:08;10.70;99.90
41310;DHT22;27057;51.438;-0.010;2023-12-20T16:56:36;10.70;99.90
41310;DHT22;27057;51.438;-0.010;2023-12-20T16:59:03;10.70;99.90
41310;DHT22;27057;51.438;-0.010;2023-12-20T17:01:31;10.70;99.90
41310;DHT22;27057;51.438;-0.010;2023-12-20T17:03:59;10.70;99.90
41310;DHT22;27057;51.438;-0.010;2023-12-20T17:06:26;10.70;99.90
41310;DHT22;27057;51.438;-0.010;2023-12-20T17:08:54;10.70;99.90
41310;DHT22;27057;51.438;-0.010;2023-12-20T17:11:21;10.70;99.90
41310;DHT22;27057;51.438;-0.010;2023-12-20T17:13:49;10.50;99.90
41310;DHT22;27057;51.438;-0.010;2023-12-20T17:16:16;11.60;99.90
41310;DHT22;27057;51.438;-0.010;2023-12-20T17:18:44;10.60;99.90
41310;DHT22;27057;51.438;-0.010;2023-12-20T17:21:16;10.70;99.90
41310;DHT22;27057;51.438;-0.010;2023-12-20T17:23:45;10.70;99.90
41310;DHT22;27057;51.438;-0.010;2023-12-20T17:26:13;10.70;99.90
41310;DHT22;27057;51.438;-0.010;2023-12-20T17:28:40;11.00;99.90